sensor_id;sensor_type;location;lat;lon;timestamp;temperature;humidity
5246;DHT22;54412;51.206;6.888;2023-11-18T00:01:25;6.30;99.90
5246;DHT22;54412;51.206;6.888;2023-11-18T00:03:56;6.40;99.90
5246;DHT22;54412;51.206;6.888;2023-11-18T00:06:22;6.30;99.90
5246;DHT22;54412;51.206;6.888;2023-11-18T00:08:48;6.30;99.90
5246;DHT22;54412;51.206;6.888;2023-11-18T00:11:13;6.10;99.90
5246;DHT22;54412;51.206;6.888;2023-11-18T00:13:39;6.20;99.90
5246;DHT22;54412;51.206;6.888;2023-11-18T00:16:09;6.30;99.90
5246;DHT22;54412;51.206;6.888;2023-11-18T00:18:40;6.20;99.90
5246;DHT22;54412;51.206;6.888;2023-11-18T00:21:07;6.20;99.90
5246;DHT22;54412;51.206;6.888;2023-11-18T00:23:33;6.20;99.90
5246;DHT22;54412;51.206;6.888;2023-11-18T00:26:00;6.30;99.90
5246;DHT22;54412;51.206;6.888;2023-11-18T00:28:25;6.20;99.90
5246;DHT22;54412;51.206;6.888;2023-11-18T00:30:51;6.20;99.90
5246;DHT22;54412;51.206;6.888;2023-11-18T00:33:17;6.20;99.90
5246;DHT22;54412;51.206;6.888;2023-11-18T00:35:43;6.10;99.90
5246;DHT22;54412;51.206;6.888;2023-11-18T00:38:10;6.20;99.90
5246;DHT22;54412;51.206;6.888;2023-11-18T00:40:36;6.10;99.90
5246;DHT22;54412;51.206;6.888;2023-11-18T00:43:01;6.10;99.90
5246;DHT22;54412;51.206;6.888;2023-11-18T00:45:28;6.00;99.90
5246;DHT22;54412;51.206;6.888;2023-11-18T00:47:54;6.00;99.90
5246;DHT22;54412;51.206;6.888;2023-11-18T00:50:20;6.00;99.90
5246;DHT22;54412;51.206;6.888;2023-11-18T00:52:45;6.00;99.90
5246;DHT22;54412;51.206;6.888;2023-11-18T00:55:13;6.00;99.90
5246;DHT22;54412;51.206;6.888;2023-11-18T00:57:39;6.00;99.90
5246;DHT22;54412;51.206;6.888;2023-11-18T01:00:07;6.00;99.90
5246;DHT22;54412;51.206;6.888;2023-11-18T01:02:35;6.00;99.90
5246;DHT22;54412;51.206;6.888;2023-11-18T01:05:00;5.90;99.90
5246;DHT22;54412;51.206;6.888;2023-11-18T01:07:26;5.90;99.90
5246;DHT22;54412;51.206;6.888;2023-11-18T01:09:51;5.80;99.90
5246;DHT22;54412;51.206;6.888;2023-11-18T01:12:17;5.90;99.90
5246;DHT22;54412;51.206;6.888;2023-11-18T01:14:43;6.00;99.90
5246;DHT22;54412;51.206;6.888;2023-11-18T01:17:08;6.00;99.90
5246;DHT22;54412;51.206;6.888;2023-11-18T01:19:39;5.90;99.90
5246;DHT22;54412;51.206;6.888;2023-11-18T01:22:04;5.80;99.90
5246;DHT22;54412;51.206;6.888;2023-11-18T01:24:31;5.80;99.90
5246;DHT22;54412;51.206;6.888;2023-11-18T01:26:58;5.70;99.90
5246;DHT22;54412;51.206;6.888;2023-11-18T01:29:25;5.90;99.90
5246;DHT22;54412;51.206;6.888;2023-11-18T01:31:51;5.90;99.90
5246;DHT22;54412;51.206;6.888;2023-11-18T01:34:19;5.80;99.90
5246;DHT22;54412;51.206;6.888;2023-11-18T01:36:47;5.60;99.90
5246;DHT22;54412;51.206;6.888;2023-11-18T01:39:15;5.60;99.90
5246;DHT22;54412;51.206;6.888;2023-11-18T01:41:43;5.50;99.90
5246;DHT22;54412;51.206;6.888;2023-11-18T01:44:10;5.70;99.90
5246;DHT22;54412;51.206;6.888;2023-11-18T01:46:40;5.70;99.90
5246;DHT22;54412;51.206;6.888;2023-11-18T01:49:10;5.70;99.90
5246;DHT22;54412;51.206;6.888;2023-11-18T01:51:40;5.60;99.90
5246;DHT22;54412;51.206;6.888;2023-11-18T01:54:09;5.50;99.90
5246;DHT22;54412;51.206;6.888;2023-11-18T01:56:43;5.50;99.90
5246;DHT22;54412;51.206;6.888;2023-11-18T01:59:12;5.60;99.90
5246;DHT22;54412;51.206;6.888;2023-11-18T02:01:46;5.50;99.90
5246;DHT22;54412;51.206;6.888;2023-11-18T02:04:20;5.50;99.90
5246;DHT22;54412;51.206;6.888;2023-11-18T02:06:48;5.50;99.90
5246;DHT22;54412;51.206;6.888;2023-11-18T02:09:18;5.50;99.90
5246;DHT22;54412;51.206;6.888;2023-11-18T02:12:00;5.60;99.90
5246;DHT22;54412;51.206;6.888;2023-11-18T02:14:39;5.60;99.90
5246;DHT22;54412;51.206;6.888;2023-11-18T02:17:07;5.60;99.90
5246;DHT22;54412;51.206;6.888;2023-11-18T02:19:38;5.50;99.90
5246;DHT22;54412;51.206;6.888;2023-11-18T02:22:06;5.60;99.90
5246;DHT22;54412;51.206;6.888;2023-11-18T02:24:33;5.70;99.90
5246;DHT22;54412;51.206;6.888;2023-11-18T02:27:03;5.60;99.90
5246;DHT22;54412;51.206;6.888;2023-11-18T02:29:44;5.60;99.90
5246;DHT22;54412;51.206;6.888;2023-11-18T02:32:30;5.50;99.90
5246;DHT22;54412;51.206;6.888;2023-11-18T02:35:10;5.50;99.90
5246;DHT22;54412;51.206;6.888;2023-11-18T02:37:44;5.70;99.90
5246;DHT22;54412;51.206;6.888;2023-11-18T02:40:19;5.70;99.90
5246;DHT22;54412;51.206;6.888;2023-11-18T02:42:47;5.70;99.90
5246;DHT22;54412;51.206;6.888;2023-11-18T02:45:18;5.70;99.90
5246;DHT22;54412;51.206;6.888;2023-11-18T02:47:46;5.60;99.90
5246;DHT22;54412;51.206;6.888;2023-11-18T02:50:13;5.60;99.90
5246;DHT22;54412;51.206;6.888;2023-11-18T02:52:41;5.70;99.90
5246;DHT22;54412;51.206;6.888;2023-11-18T02:55:07;5.70;99.90
5246;DHT22;54412;51.206;6.888;2023-11-18T02:57:37;5.70;99.90
5246;DHT22;54412;51.206;6.888;2023-11-18T03:00:08;5.80;99.90
5246;DHT22;54412;51.206;6.888;2023-11-18T03:02:42;5.70;99.90
5246;DHT22;54412;51.206;6.888;2023-11-18T03:05:08;5.70;99.90
5246;DHT22;54412;51.206;6.888;2023-11-18T03:07:43;5.70;99.90
5246;DHT22;54412;51.206;6.888;2023-11-18T03:10:12;5.70;99.90
5246;DHT22;54412;51.206;6.888;2023-11-18T03:12:47;5.80;99.90
5246;DHT22;54412;51.206;6.888;2023-11-18T03:15:13;5.80;99.90
5246;DHT22;54412;51.206;6.888;2023-11-18T03:17:43;5.80;99.90
5246;DHT22;54412;51.206;6.888;2023-11-18T03:20:14;5.80;99.90
5246;DHT22;54412;51.206;6.888;2023-11-18T03:22:43;5.80;99.90
5246;DHT22;54412;51.206;6.888;2023-11-18T03:25:10;5.80;99.90
5246;DHT22;54412;51.206;6.888;2023-11-18T03:27:36;5.90;99.90
5246;DHT22;54412;51.206;6.888;2023-11-18T03:30:02;5.80;99.90
5246;DHT22;54412;51.206;6.888;2023-11-18T03:32:28;5.80;99.90
5246;DHT22;54412;51.206;6.888;2023-11-18T03:34:54;5.70;99.90
5246;DHT22;54412;51.206;6.888;2023-11-18T03:37:19;5.80;99.90
5246;DHT22;54412;51.206;6.888;2023-11-18T03:39:48;5.80;99.90
5246;DHT22;54412;51.206;6.888;2023-11-18T03:42:14;5.80;99.90
5246;DHT22;54412;51.206;6.888;2023-11-18T03:44:41;5.80;99.90
5246;DHT22;54412;51.206;6.888;2023-11-18T03:47:06;5.80;99.90
5246;DHT22;54412;51.206;6.888;2023-11-18T03:49:32;5.70;99.90
5246;DHT22;54412;51.206;6.888;2023-11-18T03:51:58;5.70;99.90
5246;DHT22;54412;51.206;6.888;2023-11-18T03:54:24;5.70;99.90
5246;DHT22;54412;51.206;6.888;2023-11-18T03:56:50;5.80;99.90
5246;DHT22;54412;51.206;6.888;2023-11-18T03:59:15;5.80;99.90
5246;DHT22;54412;51.206;6.888;2023-11-18T04:01:41;5.80;99.90
5246;DHT22;54412;51.206;6.888;2023-11-18T04:04:07;5.80;99.90
5246;DHT22;54412;51.206;6.888;2023-11-18T04:06:32;5.80;99.90
5246;DHT22;54412;51.206;6.888;2023-11-18T04:08:58;5.80;99.90
5246;DHT22;54412;51.206;6.888;2023-11-18T04:11:24;5.80;99.90
5246;DHT22;54412;51.206;6.888;2023-11-18T04:13:50;5.90;99.90
5246;DHT22;54412;51.206;6.888;2023-11-18T04:16:16;5.90;99.90
5246;DHT22;54412;51.206;6.888;2023-11-18T04:18:45;5.90;99.90
5246;DHT22;54412;51.206;6.888;2023-11-18T04:21:12;6.00;99.90
5246;DHT22;54412;51.206;6.888;2023-11-18T04:23:40;5.90;99.90
5246;DHT22;54412;51.206;6.888;2023-11-18T04:26:07;5.90;99.90
5246;DHT22;54412;51.206;6.888;2023-11-18T04:28:34;5.80;99.90
5246;DHT22;54412;51.206;6.888;2023-11-18T04:31:01;5.70;99.90
5246;DHT22;54412;51.206;6.888;2023-11-18T04:33:28;5.80;99.90
5246;DHT22;54412;51.206;6.888;2023-11-18T04:35:58;5.70;99.90
5246;DHT22;54412;51.206;6.888;2023-11-18T04:38:25;5.70;99.90
5246;DHT22;54412;51.206;6.888;2023-11-18T04:40:52;5.60;99.90
5246;DHT22;54412;51.206;6.888;2023-11-18T04:43:18;5.60;99.90
5246;DHT22;54412;51.206;6.888;2023-11-18T04:45:43;5.60;99.90
5246;DHT22;54412;51.206;6.888;2023-11-18T04:48:09;5.70;99.90
5246;DHT22;54412;51.206;6.888;2023-11-18T04:50:35;5.70;99.90
5246;DHT22;54412;51.206;6.888;2023-11-18T04:53:01;5.70;99.90
5246;DHT22;54412;51.206;6.888;2023-11-18T04:55:28;5.70;99.90
5246;DHT22;54412;51.206;6.888;2023-11-18T04:57:54;5.70;99.90
5246;DHT22;54412;51.206;6.888;2023-11-18T05:00:20;5.60;99.90
5246;DHT22;54412;51.206;6.888;2023-11-18T05:02:47;5.60;99.90
5246;DHT22;54412;51.206;6.888;2023-11-18T05:05:16;5.60;99.90
5246;DHT22;54412;51.206;6.888;2023-11-18T05:07:43;5.60;99.90
5246;DHT22;54412;51.206;6.888;2023-11-18T05:10:09;5.60;99.90
5246;DHT22;54412;51.206;6.888;2023-11-18T05:12:36;5.60;99.90
5246;DHT22;54412;51.206;6.888;2023-11-18T05:15:04;5.60;99.90
5246;DHT22;54412;51.206;6.888;2023-11-18T05:17:31;5.70;99.90
5246;DHT22;54412;51.206;6.888;2023-11-18T05:19:57;5.70;99.90
5246;DHT22;54412;51.206;6.888;2023-11-18T05:22:23;5.70;99.90
5246;DHT22;54412;51.206;6.888;2023-11-18T05:24:48;5.70;99.90
5246;DHT22;54412;51.206;6.888;2023-11-18T05:27:14;5.60;99.90
5246;DHT22;54412;51.206;6.888;2023-11-18T05:29:40;5.70;99.90
5246;DHT22;54412;51.206;6.888;2023-11-18T05:32:07;5.80;99.90
5246;DHT22;54412;51.206;6.888;2023-11-18T05:34:33;5.80;99.90
5246;DHT22;54412;51.206;6.888;2023-11-18T05:37:00;5.80;99.90
5246;DHT22;54412;51.206;6.888;2023-11-18T05:39:26;5.70;99.90
5246;DHT22;54412;51.206;6.888;2023-11-18T05:41:56;5.70;99.90
5246;DHT22;54412;51.206;6.888;2023-11-18T05:44:23;5.70;99.90
5246;DHT22;54412;51.206;6.888;2023-11-18T05:46:59;5.80;99.90
5246;DHT22;54412;51.206;6.888;2023-11-18T05:49:25;5.80;99.90
5246;DHT22;54412;51.206;6.888;2023-11-18T05:51:51;5.90;99.90
5246;DHT22;54412;51.206;6.888;2023-11-18T05:54:17;5.90;99.90
5246;DHT22;54412;51.206;6.888;2023-11-18T05:56:43;5.90;99.90
5246;DHT22;54412;51.206;6.888;2023-11-18T05:59:09;5.90;99.90
5246;DHT22;54412;51.206;6.888;2023-11-18T06:01:36;6.00;99.90
5246;DHT22;54412;51.206;6.888;2023-11-18T06:04:05;5.90;99.90
5246;DHT22;54412;51.206;6.888;2023-11-18T06:06:33;5.90;99.90
5246;DHT22;54412;51.206;6.888;2023-11-18T06:08:59;5.90;99.90
5246;DHT22;54412;51.206;6.888;2023-11-18T06:11:30;6.00;99.90
5246;DHT22;54412;51.206;6.888;2023-11-18T06:13:57;6.00;99.90
5246;DHT22;54412;51.206;6.888;2023-11-18T06:16:24;6.00;99.90
5246;DHT22;54412;51.206;6.888;2023-11-18T06:18:57;5.90;99.90
5246;DHT22;54412;51.206;6.888;2023-11-18T06:21:26;5.90;99.90
5246;DHT22;54412;51.206;6.888;2023-11-18T06:23:55;6.10;99.90
5246;DHT22;54412;51.206;6.888;2023-11-18T06:26:23;6.20;99.90
5246;DHT22;54412;51.206;6.888;2023-11-18T06:28:53;6.40;99.90
5246;DHT22;54412;51.206;6.888;2023-11-18T06:31:23;6.50;99.90
5246;DHT22;54412;51.206;6.888;2023-11-18T06:33:49;6.40;99.90
5246;DHT22;54412;51.206;6.888;2023-11-18T06:38:45;6.40;99.90
5246;DHT22;54412;51.206;6.888;2023-11-18T06:41:12;6.50;99.90
5246;DHT22;54412;51.206;6.888;2023-11-18T06:43:42;6.40;99.90
5246;DHT22;54412;51.206;6.888;2023-11-18T06:46:30;6.40;99.90
5246;DHT22;54412;51.206;6.888;2023-11-18T06:49:01;6.40;99.90
5246;DHT22;54412;51.206;6.888;2023-11-18T06:51:33;6.30;99.90
5246;DHT22;54412;51.206;6.888;2023-11-18T06:54:01;6.20;99.90
5246;DHT22;54412;51.206;6.888;2023-11-18T06:56:34;6.20;99.90
5246;DHT22;54412;51.206;6.888;2023-11-18T06:59:06;6.20;99.90
5246;DHT22;54412;51.206;6.888;2023-11-18T07:01:36;6.10;99.90
5246;DHT22;54412;51.206;6.888;2023-11-18T07:04:02;6.20;99.90
5246;DHT22;54412;51.206;6.888;2023-11-18T07:06:28;6.20;99.90
5246;DHT22;54412;51.206;6.888;2023-11-18T07:08:54;6.20;99.90
5246;DHT22;54412;51.206;6.888;2023-11-18T07:11:26;6.30;99.90
5246;DHT22;54412;51.206;6.888;2023-11-18T07:13:52;6.30;99.90
5246;DHT22;54412;51.206;6.888;2023-11-18T07:16:24;6.40;99.90
5246;DHT22;54412;51.206;6.888;2023-11-18T07:18:51;6.50;99.90
5246;DHT22;54412;51.206;6.888;2023-11-18T07:21:18;6.50;99.90
5246;DHT22;54412;51.206;6.888;2023-11-18T07:23:44;6.40;99.90
5246;DHT22;54412;51.206;6.888;2023-11-18T07:26:09;6.40;99.90
5246;DHT22;54412;51.206;6.888;2023-11-18T07:28:36;6.40;99.90
5246;DHT22;54412;51.206;6.888;2023-11-18T07:31:01;6.50;99.90
5246;DHT22;54412;51.206;6.888;2023-11-18T07:33:30;6.50;99.90
5246;DHT22;54412;51.206;6.888;2023-11-18T07:35:59;6.40;99.90
5246;DHT22;54412;51.206;6.888;2023-11-18T07:38:25;6.50;99.90
5246;DHT22;54412;51.206;6.888;2023-11-18T07:40:52;6.50;99.90
5246;DHT22;54412;51.206;6.888;2023-11-18T07:43:22;6.50;99.90
5246;DHT22;54412;51.206;6.888;2023-11-18T07:45:48;6.50;99.90
5246;DHT22;54412;51.206;6.888;2023-11-18T07:48:18;6.60;99.90
5246;DHT22;54412;51.206;6.888;2023-11-18T07:50:46;6.50;99.90
5246;DHT22;54412;51.206;6.888;2023-11-18T07:53:15;6.50;99.90
5246;DHT22;54412;51.206;6.888;2023-11-18T07:55:41;6.60;99.90
5246;DHT22;54412;51.206;6.888;2023-11-18T07:58:08;6.60;99.90
5246;DHT22;54412;51.206;6.888;2023-11-18T08:00:39;6.60;99.90
5246;DHT22;54412;51.206;6.888;2023-11-18T08:03:07;6.50;99.90
5246;DHT22;54412;51.206;6.888;2023-11-18T08:05:37;6.60;99.90
5246;DHT22;54412;51.206;6.888;2023-11-18T08:08:08;6.50;99.90
5246;DHT22;54412;51.206;6.888;2023-11-18T08:10:37;6.50;99.90
5246;DHT22;54412;51.206;6.888;2023-11-18T08:13:05;6.60;99.90
5246;DHT22;54412;51.206;6.888;2023-11-18T08:15:40;6.60;99.90
5246;DHT22;54412;51.206;6.888;2023-11-18T08:18:07;6.70;99.90
5246;DHT22;54412;51.206;6.888;2023-11-18T08:20:35;6.80;99.90
5246;DHT22;54412;51.206;6.888;2023-11-18T08:23:01;6.80;99.90
5246;DHT22;54412;51.206;6.888;2023-11-18T08:25:28;6.80;99.90
5246;DHT22;54412;51.206;6.888;2023-11-18T08:27:53;6.80;99.90
5246;DHT22;54412;51.206;6.888;2023-11-18T08:30:19;6.80;99.90
5246;DHT22;54412;51.206;6.888;2023-11-18T08:32:46;6.80;99.90
5246;DHT22;54412;51.206;6.888;2023-11-18T08:35:13;6.90;99.90
5246;DHT22;54412;51.206;6.888;2023-11-18T08:37:40;7.00;99.90
5246;DHT22;54412;51.206;6.888;2023-11-18T08:40:08;7.00;99.90
5246;DHT22;54412;51.206;6.888;2023-11-18T08:42:48;7.00;99.90
5246;DHT22;54412;51.206;6.888;2023-11-18T08:45:16;7.00;99.90
5246;DHT22;54412;51.206;6.888;2023-11-18T08:47:43;7.10;99.90
5246;DHT22;54412;51.206;6.888;2023-11-18T08:50:10;7.10;99.90
5246;DHT22;54412;51.206;6.888;2023-11-18T08:52:38;7.10;99.90
5246;DHT22;54412;51.206;6.888;2023-11-18T08:55:10;7.20;99.90
5246;DHT22;54412;51.206;6.888;2023-11-18T08:57:47;7.20;99.90
5246;DHT22;54412;51.206;6.888;2023-11-18T09:00:18;7.10;99.90
5246;DHT22;54412;51.206;6.888;2023-11-18T09:03:04;7.20;99.90
5246;DHT22;54412;51.206;6.888;2023-11-18T09:05:32;7.20;99.90
5246;DHT22;54412;51.206;6.888;2023-11-18T09:08:07;7.20;99.90
5246;DHT22;54412;51.206;6.888;2023-11-18T09:10:33;7.30;99.90
5246;DHT22;54412;51.206;6.888;2023-11-18T09:12:59;7.40;99.90
5246;DHT22;54412;51.206;6.888;2023-11-18T09:15:25;7.40;99.90
5246;DHT22;54412;51.206;6.888;2023-11-18T09:17:51;7.40;99.90
5246;DHT22;54412;51.206;6.888;2023-11-18T09:20:18;7.40;99.90
5246;DHT22;54412;51.206;6.888;2023-11-18T09:22:48;7.40;99.90
5246;DHT22;54412;51.206;6.888;2023-11-18T09:25:14;7.40;99.90
5246;DHT22;54412;51.206;6.888;2023-11-18T09:27:42;7.40;99.90
5246;DHT22;54412;51.206;6.888;2023-11-18T09:30:08;7.50;99.90
5246;DHT22;54412;51.206;6.888;2023-11-18T09:32:43;7.40;99.90
5246;DHT22;54412;51.206;6.888;2023-11-18T09:35:13;7.50;99.90
5246;DHT22;54412;51.206;6.888;2023-11-18T09:37:39;7.50;99.90
5246;DHT22;54412;51.206;6.888;2023-11-18T09:40:13;7.60;99.90
5246;DHT22;54412;51.206;6.888;2023-11-18T09:42:40;7.50;99.90
5246;DHT22;54412;51.206;6.888;2023-11-18T09:45:09;7.60;99.90
5246;DHT22;54412;51.206;6.888;2023-11-18T09:47:45;7.60;99.90
5246;DHT22;54412;51.206;6.888;2023-11-18T09:50:17;7.60;99.90
5246;DHT22;54412;51.206;6.888;2023-11-18T09:52:49;7.60;99.90
5246;DHT22;54412;51.206;6.888;2023-11-18T09:55:45;7.60;99.90
5246;DHT22;54412;51.206;6.888;2023-11-18T09:58:21;7.70;99.90
5246;DHT22;54412;51.206;6.888;2023-11-18T10:00:50;7.60;99.90
5246;DHT22;54412;51.206;6.888;2023-11-18T10:03:24;7.60;99.90
5246;DHT22;54412;51.206;6.888;2023-11-18T10:05:51;7.70;99.90
5246;DHT22;54412;51.206;6.888;2023-11-18T10:08:20;7.70;99.90
5246;DHT22;54412;51.206;6.888;2023-11-18T10:10:51;7.70;99.90
5246;DHT22;54412;51.206;6.888;2023-11-18T10:13:19;7.80;99.90
5246;DHT22;54412;51.206;6.888;2023-11-18T10:15:50;7.80;99.90
5246;DHT22;54412;51.206;6.888;2023-11-18T10:18:18;7.80;99.90
5246;DHT22;54412;51.206;6.888;2023-11-18T10:20:50;7.80;99.90
5246;DHT22;54412;51.206;6.888;2023-11-18T10:23:21;7.90;99.90
5246;DHT22;54412;51.206;6.888;2023-11-18T10:25:53;7.80;99.90
5246;DHT22;54412;51.206;6.888;2023-11-18T10:28:33;7.90;99.90
5246;DHT22;54412;51.206;6.888;2023-11-18T10:31:02;7.90;99.90
5246;DHT22;54412;51.206;6.888;2023-11-18T10:33:40;7.90;99.90
5246;DHT22;54412;51.206;6.888;2023-11-18T10:36:22;7.90;99.90
5246;DHT22;54412;51.206;6.888;2023-11-18T10:38:49;7.90;99.90
5246;DHT22;54412;51.206;6.888;2023-11-18T10:41:18;7.90;99.90
5246;DHT22;54412;51.206;6.888;2023-11-18T10:43:44;7.90;99.90
5246;DHT22;54412;51.206;6.888;2023-11-18T10:46:12;7.90;99.90
5246;DHT22;54412;51.206;6.888;2023-11-18T10:48:48;8.00;99.90
5246;DHT22;54412;51.206;6.888;2023-11-18T10:51:18;8.00;99.90
5246;DHT22;54412;51.206;6.888;2023-11-18T10:53:48;8.00;99.90
5246;DHT22;54412;51.206;6.888;2023-11-18T10:56:24;8.00;99.90
5246;DHT22;54412;51.206;6.888;2023-11-18T10:59:06;8.00;99.90
5246;DHT22;54412;51.206;6.888;2023-11-18T11:01:37;8.00;99.90
5246;DHT22;54412;51.206;6.888;2023-11-18T11:04:12;8.10;99.90
5246;DHT22;54412;51.206;6.888;2023-11-18T11:06:41;8.10;99.90
5246;DHT22;54412;51.206;6.888;2023-11-18T11:09:22;8.30;99.90
5246;DHT22;54412;51.206;6.888;2023-11-18T11:12:07;8.20;99.90
5246;DHT22;54412;51.206;6.888;2023-11-18T11:14:46;8.20;99.90
5246;DHT22;54412;51.206;6.888;2023-11-18T11:17:20;8.10;99.90
5246;DHT22;54412;51.206;6.888;2023-11-18T11:23:05;8.20;99.90
5246;DHT22;54412;51.206;6.888;2023-11-18T11:25:49;8.20;99.90
5246;DHT22;54412;51.206;6.888;2023-11-18T11:28:32;8.10;99.90
5246;DHT22;54412;51.206;6.888;2023-11-18T11:31:16;8.20;99.90
5246;DHT22;54412;51.206;6.888;2023-11-18T11:34:02;8.20;99.90
5246;DHT22;54412;51.206;6.888;2023-11-18T11:36:42;8.10;99.90
5246;DHT22;54412;51.206;6.888;2023-11-18T11:39:12;8.10;99.90
5246;DHT22;54412;51.206;6.888;2023-11-18T11:41:45;8.10;99.90
5246;DHT22;54412;51.206;6.888;2023-11-18T11:44:13;8.10;99.90
5246;DHT22;54412;51.206;6.888;2023-11-18T11:46:40;8.10;99.90
5246;DHT22;54412;51.206;6.888;2023-11-18T11:49:09;8.10;99.90
5246;DHT22;54412;51.206;6.888;2023-11-18T11:54:45;8.20;99.90
5246;DHT22;54412;51.206;6.888;2023-11-18T11:57:22;8.20;99.90
5246;DHT22;54412;51.206;6.888;2023-11-18T12:02:20;8.20;99.90
5246;DHT22;54412;51.206;6.888;2023-11-18T12:04:50;8.20;99.90
5246;DHT22;54412;51.206;6.888;2023-11-18T12:07:20;8.20;99.90
5246;DHT22;54412;51.206;6.888;2023-11-18T12:09:49;8.20;99.90
5246;DHT22;54412;51.206;6.888;2023-11-18T12:12:21;8.30;99.90
5246;DHT22;54412;51.206;6.888;2023-11-18T12:17:24;8.30;99.90
5246;DHT22;54412;51.206;6.888;2023-11-18T12:19:54;8.30;99.90
5246;DHT22;54412;51.206;6.888;2023-11-18T12:23:03;8.20;99.90
5246;DHT22;54412;51.206;6.888;2023-11-18T12:25:40;8.20;99.90
5246;DHT22;54412;51.206;6.888;2023-11-18T12:28:11;8.10;99.90
5246;DHT22;54412;51.206;6.888;2023-11-18T12:30:41;8.20;99.90
5246;DHT22;54412;51.206;6.888;2023-11-18T12:33:20;8.20;99.90
5246;DHT22;54412;51.206;6.888;2023-11-18T12:41:39;8.20;99.90
5246;DHT22;54412;51.206;6.888;2023-11-18T12:44:15;8.20;99.90
5246;DHT22;54412;51.206;6.888;2023-11-18T12:47:01;8.10;99.90
5246;DHT22;54412;51.206;6.888;2023-11-18T12:49:40;8.20;99.90
5246;DHT22;54412;51.206;6.888;2023-11-18T12:52:11;8.20;99.90
5246;DHT22;54412;51.206;6.888;2023-11-18T12:54:43;8.20;99.90
5246;DHT22;54412;51.206;6.888;2023-11-18T12:57:12;8.20;99.90
5246;DHT22;54412;51.206;6.888;2023-11-18T12:59:41;8.10;99.90
5246;DHT22;54412;51.206;6.888;2023-11-18T13:02:08;8.20;99.90
5246;DHT22;54412;51.206;6.888;2023-11-18T13:04:45;8.20;99.90
5246;DHT22;54412;51.206;6.888;2023-11-18T13:07:13;8.20;99.90
5246;DHT22;54412;51.206;6.888;2023-11-18T13:09:40;8.20;99.90
5246;DHT22;54412;51.206;6.888;2023-11-18T13:12:09;8.20;99.90
5246;DHT22;54412;51.206;6.888;2023-11-18T13:14:35;8.20;99.90
5246;DHT22;54412;51.206;6.888;2023-11-18T13:17:08;8.40;99.90
5246;DHT22;54412;51.206;6.888;2023-11-18T13:19:35;8.40;99.90
5246;DHT22;54412;51.206;6.888;2023-11-18T13:22:01;8.30;99.90
5246;DHT22;54412;51.206;6.888;2023-11-18T13:24:41;8.20;99.90
5246;DHT22;54412;51.206;6.888;2023-11-18T13:27:16;8.20;99.90
5246;DHT22;54412;51.206;6.888;2023-11-18T13:29:47;8.30;99.90
5246;DHT22;54412;51.206;6.888;2023-11-18T13:32:17;8.20;99.90
5246;DHT22;54412;51.206;6.888;2023-11-18T13:34:43;8.30;99.90
5246;DHT22;54412;51.206;6.888;2023-11-18T13:37:10;8.30;99.90
5246;DHT22;54412;51.206;6.888;2023-11-18T13:39:38;8.30;99.90
5246;DHT22;54412;51.206;6.888;2023-11-18T13:42:23;8.30;99.90
5246;DHT22;54412;51.206;6.888;2023-11-18T13:44:51;8.20;99.90
5246;DHT22;54412;51.206;6.888;2023-11-18T13:47:18;8.20;99.90
5246;DHT22;54412;51.206;6.888;2023-11-18T13:49:53;8.30;99.90
5246;DHT22;54412;51.206;6.888;2023-11-18T13:52:20;8.30;99.90
5246;DHT22;54412;51.206;6.888;2023-11-18T13:54:49;8.30;99.90
5246;DHT22;54412;51.206;6.888;2023-11-18T13:57:21;8.20;99.90
5246;DHT22;54412;51.206;6.888;2023-11-18T13:59:50;8.30;99.90
5246;DHT22;54412;51.206;6.888;2023-11-18T14:02:16;8.30;99.90
5246;DHT22;54412;51.206;6.888;2023-11-18T14:04:43;8.30;99.90
5246;DHT22;54412;51.206;6.888;2023-11-18T14:07:13;8.30;99.90
5246;DHT22;54412;51.206;6.888;2023-11-18T14:09:41;8.30;99.90
5246;DHT22;54412;51.206;6.888;2023-11-18T14:12:10;8.40;99.90
5246;DHT22;54412;51.206;6.888;2023-11-18T14:14:37;8.40;99.90
5246;DHT22;54412;51.206;6.888;2023-11-18T14:17:04;8.40;99.90
5246;DHT22;54412;51.206;6.888;2023-11-18T14:19:31;8.40;99.90
5246;DHT22;54412;51.206;6.888;2023-11-18T14:22:00;8.50;99.90
5246;DHT22;54412;51.206;6.888;2023-11-18T14:24:34;8.40;99.90
5246;DHT22;54412;51.206;6.888;2023-11-18T14:27:00;8.40;99.90
5246;DHT22;54412;51.206;6.888;2023-11-18T14:29:26;8.40;99.90
5246;DHT22;54412;51.206;6.888;2023-11-18T14:31:53;8.30;99.90
5246;DHT22;54412;51.206;6.888;2023-11-18T14:34:19;8.30;99.90
5246;DHT22;54412;51.206;6.888;2023-11-18T14:36:45;8.30;99.90
5246;DHT22;54412;51.206;6.888;2023-11-18T14:39:11;8.30;99.90
5246;DHT22;54412;51.206;6.888;2023-11-18T14:41:40;8.20;99.90
5246;DHT22;54412;51.206;6.888;2023-11-18T14:44:06;8.20;99.90
5246;DHT22;54412;51.206;6.888;2023-11-18T14:46:35;8.20;99.90
5246;DHT22;54412;51.206;6.888;2023-11-18T14:49:06;8.30;99.90
5246;DHT22;54412;51.206;6.888;2023-11-18T14:51:32;8.30;99.90
5246;DHT22;54412;51.206;6.888;2023-11-18T14:53:58;8.40;99.90
5246;DHT22;54412;51.206;6.888;2023-11-18T14:56:24;8.40;99.90
5246;DHT22;54412;51.206;6.888;2023-11-18T14:58:50;8.30;99.90
5246;DHT22;54412;51.206;6.888;2023-11-18T15:01:16;8.20;99.90
5246;DHT22;54412;51.206;6.888;2023-11-18T15:03:46;8.30;99.90
5246;DHT22;54412;51.206;6.888;2023-11-18T15:06:12;8.20;99.90
5246;DHT22;54412;51.206;6.888;2023-11-18T15:08:38;8.10;99.90
5246;DHT22;54412;51.206;6.888;2023-11-18T15:11:07;8.10;99.90
5246;DHT22;54412;51.206;6.888;2023-11-18T15:13:32;8.10;99.90
5246;DHT22;54412;51.206;6.888;2023-11-18T15:15:58;8.10;99.90
5246;DHT22;54412;51.206;6.888;2023-11-18T15:18:24;8.00;99.90
5246;DHT22;54412;51.206;6.888;2023-11-18T15:20:50;8.00;99.90
5246;DHT22;54412;51.206;6.888;2023-11-18T15:23:17;8.00;99.90
5246;DHT22;54412;51.206;6.888;2023-11-18T15:25:44;7.90;99.90
5246;DHT22;54412;51.206;6.888;2023-11-18T15:28:10;8.00;99.90
5246;DHT22;54412;51.206;6.888;2023-11-18T15:30:39;7.90;99.90
5246;DHT22;54412;51.206;6.888;2023-11-18T15:33:08;8.00;99.90
5246;DHT22;54412;51.206;6.888;2023-11-18T15:35:35;8.00;99.90
5246;DHT22;54412;51.206;6.888;2023-11-18T15:38:11;8.00;99.90
5246;DHT22;54412;51.206;6.888;2023-11-18T15:40:42;8.00;99.90
5246;DHT22;54412;51.206;6.888;2023-11-18T15:43:08;7.90;99.90
5246;DHT22;54412;51.206;6.888;2023-11-18T15:45:37;7.90;99.90
5246;DHT22;54412;51.206;6.888;2023-11-18T15:48:03;7.90;99.90
5246;DHT22;54412;51.206;6.888;2023-11-18T15:50:36;7.90;99.90
5246;DHT22;54412;51.206;6.888;2023-11-18T15:53:05;7.90;99.90
5246;DHT22;54412;51.206;6.888;2023-11-18T15:55:34;7.90;99.90
5246;DHT22;54412;51.206;6.888;2023-11-18T15:58:01;7.90;99.90
5246;DHT22;54412;51.206;6.888;2023-11-18T16:00:29;7.90;99.90
5246;DHT22;54412;51.206;6.888;2023-11-18T16:02:58;8.00;99.90
5246;DHT22;54412;51.206;6.888;2023-11-18T16:05:26;8.00;99.90
5246;DHT22;54412;51.206;6.888;2023-11-18T16:07:55;7.90;99.90
5246;DHT22;54412;51.206;6.888;2023-11-18T16:10:23;7.90;99.90
5246;DHT22;54412;51.206;6.888;2023-11-18T16:12:51;7.90;99.90
5246;DHT22;54412;51.206;6.888;2023-11-18T16:15:21;7.90;99.90
5246;DHT22;54412;51.206;6.888;2023-11-18T16:17:51;8.00;99.90
5246;DHT22;54412;51.206;6.888;2023-11-18T16:20:22;8.00;99.90
5246;DHT22;54412;51.206;6.888;2023-11-18T16:22:49;7.90;99.90
5246;DHT22;54412;51.206;6.888;2023-11-18T16:25:17;8.00;99.90
5246;DHT22;54412;51.206;6.888;2023-11-18T16:27:48;8.00;99.90
5246;DHT22;54412;51.206;6.888;2023-11-18T16:30:18;8.10;99.90
5246;DHT22;54412;51.206;6.888;2023-11-18T16:32:50;8.10;99.90
5246;DHT22;54412;51.206;6.888;2023-11-18T16:35:17;8.00;99.90